Time;durP1;ratioP1;P1;durP2;ratioP2;P2;SDS_P1;SDS_P2;PMS_P1;PMS_P2;Temp;Humidity;BMP_temperature;BMP_pressure;BME280_temperature;BME280_humidity;BME280_pressure;Samples;Min_cycle;Max_cycle;Signal;HPM_P1;HPM_P2
2021/10/19 00:00:43;;;;;;;12.07;10.35;;;15.60;88.30;;;;;;4210276;28;20040;-61
2021/10/19 00:03:08;;;;;;;12.50;9.48;;;15.60;88.30;;;;;;4210192;28;20072;-61
2021/10/19 00:05:30;;;;;;;10.35;8.90;;;15.60;88.30;;;;;;4210438;28;20047;-62
2021/10/19 00:07:52;;;;;;;10.82;9.25;;;15.60;88.40;;;;;;4209103;28;20047;-61
2021/10/19 00:10:15;;;;;;;9.75;8.75;;;15.60;88.40;;;;;;4227036;27;20047;-61
2021/10/19 00:12:38;;;;;;;11.18;9.68;;;15.60;88.40;;;;;;4222941;27;20064;-62
2021/10/19 00:15:04;;;;;;;10.43;9.02;;;15.60;88.50;;;;;;4210045;28;20048;-62
2021/10/19 00:17:26;;;;;;;10.50;9.05;;;15.60;89.30;;;;;;4216966;27;20092;-62
2021/10/19 00:19:50;;;;;;;10.20;9.18;;;15.60;88.50;;;;;;4226753;27;20047;-62
2021/10/19 00:22:12;;;;;;;12.35;9.98;;;15.60;88.60;;;;;;4227011;27;20054;-62
2021/10/19 00:24:34;;;;;;;10.77;9.70;;;15.60;88.60;;;;;;4226496;27;20134;-61
2021/10/19 00:26:56;;;;;;;11.73;9.65;;;15.60;88.60;;;;;;4218198;27;20059;-62
2021/10/19 00:29:19;;;;;;;11.43;9.93;;;15.60;88.60;;;;;;4209940;28;20546;-62
2021/10/19 00:31:42;;;;;;;10.82;9.70;;;15.60;88.60;;;;;;4208248;28;20460;-61
2021/10/19 00:34:06;;;;;;;11.75;9.40;;;15.60;88.70;;;;;;4209315;28;20063;-61
2021/10/19 00:36:29;;;;;;;11.45;9.18;;;15.60;88.70;;;;;;4220520;27;20074;-62
2021/10/19 00:38:51;;;;;;;10.45;9.23;;;15.60;88.70;;;;;;4225802;27;20089;-61
2021/10/19 00:41:13;;;;;;;10.73;9.63;;;15.60;88.70;;;;;;4226308;27;20055;-61
2021/10/19 00:43:36;;;;;;;11.70;10.50;;;15.60;88.70;;;;;;4226399;27;20052;-61
2021/10/19 00:45:58;;;;;;;10.88;9.70;;;15.60;88.70;;;;;;4218388;27;20456;-62
2021/10/19 00:48:21;;;;;;;10.80;9.75;;;15.60;88.70;;;;;;4210029;28;20056;-62
2021/10/19 00:50:43;;;;;;;13.20;9.82;;;15.60;88.80;;;;;;4209287;28;20102;-61
2021/10/19 00:53:08;;;;;;;10.60;9.45;;;15.60;88.80;;;;;;4209504;28;20818;-61
2021/10/19 00:55:32;;;;;;;14.57;10.20;;;15.60;88.90;;;;;;4211904;28;20100;-61
2021/10/19 00:57:54;;;;;;;11.07;9.23;;;15.60;88.90;;;;;;4226332;27;20048;-62
2021/10/19 01:00:16;;;;;;;11.00;9.88;;;15.60;88.90;;;;;;4226076;27;20512;-62
2021/10/19 01:02:42;;;;;;;10.95;9.85;;;15.60;88.90;;;;;;4226163;27;20085;-62
2021/10/19 01:05:05;;;;;;;13.82;10.45;;;15.60;88.90;;;;;;4223779;27;20039;-61
2021/10/19 01:07:27;;;;;;;10.32;9.27;;;15.60;88.90;;;;;;4209103;28;20055;-62
2021/10/19 01:09:51;;;;;;;12.00;9.40;;;15.60;89.00;;;;;;4209063;28;20055;-62
2021/10/19 01:12:14;;;;;;;12.52;10.05;;;15.60;89.00;;;;;;4209178;28;20117;-62
2021/10/19 01:14:36;;;;;;;10.52;9.32;;;15.60;89.00;;;;;;4208832;28;20387;-62
2021/10/19 01:16:59;;;;;;;13.32;10.00;;;15.60;89.10;;;;;;4192222;28;20094;-62
2021/10/19 01:19:24;;;;;;;11.43;9.73;;;15.60;89.10;;;;;;4191353;28;20418;-62
2021/10/19 01:21:52;;;;;;;12.27;10.27;;;15.60;89.10;;;;;;4192387;28;20051;-62
2021/10/19 01:24:14;;;;;;;12.65;10.25;;;15.60;89.10;;;;;;4191425;28;20136;-62
2021/10/19 01:26:36;;;;;;;10.25;9.27;;;15.60;89.20;;;;;;4202680;28;20540;-63
2021/10/19 01:28:58;;;;;;;12.70;9.93;;;15.60;89.30;;;;;;4208194;28;20563;-62
2021/10/19 01:31:20;;;;;;;11.23;10.13;;;15.60;89.40;;;;;;4208952;28;20067;-62
2021/10/19 01:33:42;;;;;;;11.85;10.02;;;15.60;89.50;;;;;;4208734;28;20121;-63
2021/10/19 01:36:05;;;;;;;11.88;10.20;;;15.60;89.60;;;;;;4208886;28;20138;-62
2021/10/19 01:38:33;;;;;;;10.95;9.55;;;15.60;89.60;;;;;;4208460;28;20055;-63
2021/10/19 01:40:56;;;;;;;11.55;10.35;;;15.60;89.70;;;;;;4208560;28;20051;-62
2021/10/19 01:43:20;;;;;;;13.32;10.18;;;15.60;89.80;;;;;;4208426;28;20575;-62
2021/10/19 01:45:42;;;;;;;12.35;10.73;;;15.60;89.80;;;;;;4207884;28;20040;-62
2021/10/19 01:48:05;;;;;;;10.77;9.68;;;15.60;89.90;;;;;;4208764;28;20048;-62
2021/10/19 01:50:27;;;;;;;11.38;9.90;;;15.60;90.00;;;;;;4208624;28;20055;-62
2021/10/19 01:52:50;;;;;;;13.05;10.70;;;15.60;90.00;;;;;;4208364;28;20755;-62
2021/10/19 01:55:13;;;;;;;11.32;10.18;;;15.60;90.00;;;;;;4191880;28;20052;-62
2021/10/19 01:57:36;;;;;;;13.45;11.73;;;15.50;90.00;;;;;;4191909;28;20053;-62
2021/10/19 01:59:59;;;;;;;11.75;10.55;;;15.60;90.00;;;;;;4191697;28;20049;-62
2021/10/19 02:02:21;;;;;;;11.63;10.15;;;15.60;90.00;;;;;;4191487;28;20045;-62
2021/10/19 02:04:43;;;;;;;11.43;10.27;;;15.60;90.00;;;;;;4192823;28;20114;-62
2021/10/19 02:07:05;;;;;;;12.68;11.38;;;15.60;90.00;;;;;;4208138;28;20080;-63
2021/10/19 02:09:27;;;;;;;9.73;8.80;;;15.60;90.00;;;;;;4208182;28;20108;-63
2021/10/19 02:11:51;;;;;;;11.05;9.85;;;15.50;90.40;;;;;;4191282;28;20048;-62
2021/10/19 02:14:13;;;;;;;11.25;10.10;;;15.60;90.10;;;;;;4191102;28;20060;-62
2021/10/19 02:16:35;;;;;;;12.18;10.88;;;15.50;90.10;;;;;;4191542;28;20090;-62
2021/10/19 02:18:57;;;;;;;11.40;9.93;;;15.60;90.10;;;;;;4191581;28;20071;-62
2021/10/19 02:21:19;;;;;;;12.07;10.60;;;15.60;90.10;;;;;;4207013;28;20051;-62
2021/10/19 02:23:41;;;;;;;12.40;10.70;;;15.60;90.10;;;;;;4207902;28;20044;-62
2021/10/19 02:26:03;;;;;;;11.38;9.75;;;15.60;90.10;;;;;;4207929;28;20409;-62
2021/10/19 02:28:26;;;;;;;12.95;9.88;;;15.60;90.10;;;;;;4208013;28;20055;-62
2021/10/19 02:30:49;;;;;;;12.65;10.27;;;15.60;90.10;;;;;;4207532;28;20048;-62
2021/10/19 02:33:11;;;;;;;10.98;9.65;;;15.60;90.10;;;;;;4207457;28;20062;-62
2021/10/19 02:35:33;;;;;;;12.15;10.48;;;15.60;90.10;;;;;;4208116;28;20055;-62
2021/10/19 02:37:57;;;;;;;11.43;10.32;;;15.60;90.10;;;;;;4208017;28;20040;-62
2021/10/19 02:40:19;;;;;;;11.48;10.23;;;15.60;90.20;;;;;;4207916;28;20134;-62
2021/10/19 02:42:41;;;;;;;11.60;9.73;;;15.60;90.20;;;;;;4207905;28;20151;-62
2021/10/19 02:45:07;;;;;;;11.15;10.00;;;15.60;90.20;;;;;;4207637;28;20563;-62
2021/10/19 02:47:29;;;;;;;11.13;9.95;;;15.60;90.20;;;;;;4208274;28;20048;-62
2021/10/19 02:49:51;;;;;;;11.15;10.05;;;15.60;90.20;;;;;;4217434;27;20123;-65
2021/10/19 02:52:13;;;;;;;12.63;9.85;;;15.60;90.20;;;;;;4207591;28;20047;-62
2021/10/19 02:54:36;;;;;;;10.68;9.40;;;15.60;90.20;;;;;;4207973;28;20113;-62
2021/10/19 02:56:58;;;;;;;11.55;10.45;;;15.50;90.20;;;;;;4207914;28;20133;-61
2021/10/19 02:59:21;;;;;;;10.60;9.60;;;15.60;90.20;;;;;;4207864;28;20421;-63
2021/10/19 03:01:44;;;;;;;10.10;9.07;;;15.50;90.20;;;;;;4207863;28;20405;-62
2021/10/19 03:04:06;;;;;;;10.02;9.13;;;15.60;90.30;;;;;;4207714;28;20099;-62
2021/10/19 03:06:28;;;;;;;11.77;10.52;;;15.50;90.30;;;;;;4191029;28;20045;-62
2021/10/19 03:08:50;;;;;;;10.57;9.52;;;15.60;90.30;;;;;;4190963;28;20461;-62
2021/10/19 03:11:12;;;;;;;10.93;9.82;;;15.50;90.30;;;;;;4190882;28;20497;-62
2021/10/19 03:13:35;;;;;;;10.65;9.63;;;15.60;90.30;;;;;;4190013;28;20049;-61
2021/10/19 03:16:08;;;;;;;10.88;9.77;;;15.60;90.40;;;;;;4190384;28;20065;-62
2021/10/19 03:18:32;;;;;;;10.30;9.30;;;15.60;90.80;;;;;;4190709;28;20036;-61
2021/10/19 03:20:54;;;;;;;10.27;8.98;;;15.60;90.40;;;;;;4206853;28;20482;-62
2021/10/19 03:23:17;;;;;;;10.85;9.75;;;15.50;90.30;;;;;;4207559;28;20036;-62
2021/10/19 03:25:39;;;;;;;11.02;9.93;;;15.60;90.40;;;;;;4207491;28;20051;-62
2021/10/19 03:28:01;;;;;;;10.20;9.20;;;15.50;90.40;;;;;;4206400;28;20127;-62
2021/10/19 03:30:24;;;;;;;11.30;9.38;;;15.60;90.40;;;;;;4207514;28;20048;-63
2021/10/19 03:32:46;;;;;;;10.45;9.35;;;15.60;90.80;;;;;;4207489;28;20059;-63
2021/10/19 03:35:10;;;;;;;10.32;9.20;;;15.60;90.40;;;;;;4207359;28;20139;-61
2021/10/19 03:37:32;;;;;;;10.55;9.52;;;15.60;90.50;;;;;;4206800;28;20048;-62
2021/10/19 03:39:54;;;;;;;11.23;9.98;;;15.60;90.50;;;;;;4207018;28;20444;-62
2021/10/19 03:42:16;;;;;;;10.50;9.40;;;15.60;90.50;;;;;;4226093;27;20075;-62
2021/10/19 03:44:38;;;;;;;10.75;9.75;;;15.60;90.90;;;;;;4219087;27;20494;-62
2021/10/19 03:47:00;;;;;;;11.68;10.48;;;15.60;90.90;;;;;;4210454;28;20132;-63
2021/10/19 03:49:22;;;;;;;12.35;10.05;;;15.60;90.50;;;;;;4213664;27;20047;-62
2021/10/19 03:51:46;;;;;;;10.75;9.60;;;15.60;90.60;;;;;;4227435;27;20413;-63
2021/10/19 03:54:10;;;;;;;9.70;8.77;;;15.50;90.60;;;;;;4227388;27;20073;-62
2021/10/19 03:56:32;;;;;;;11.88;9.52;;;15.60;90.60;;;;;;4227120;27;20051;-62
2021/10/19 03:58:54;;;;;;;10.10;9.10;;;15.60;90.60;;;;;;4226227;27;20116;-62
2021/10/19 04:01:16;;;;;;;9.82;8.82;;;15.50;90.60;;;;;;4227185;27;20130;-62
2021/10/19 04:03:38;;;;;;;13.15;9.57;;;15.60;90.60;;;;;;4224393;27;20051;-63
2021/10/19 04:06:00;;;;;;;9.50;8.60;;;15.60;90.60;;;;;;4210143;28;20105;-62
2021/10/19 04:08:24;;;;;;;10.88;9.77;;;15.60;90.60;;;;;;4210103;28;20458;-62
2021/10/19 04:10:46;;;;;;;10.88;8.55;;;15.50;90.70;;;;;;4210021;27;20462;-62
2021/10/19 04:13:08;;;;;;;10.57;9.57;;;15.60;90.70;;;;;;4226880;27;20143;-62
2021/10/19 04:15:30;;;;;;;10.90;9.77;;;15.60;91.10;;;;;;4226842;27;20513;-62
2021/10/19 04:17:52;;;;;;;10.48;9.48;;;15.60;90.70;;;;;;4227014;27;20535;-62
2021/10/19 04:20:14;;;;;;;10.27;9.27;;;15.50;90.70;;;;;;4209206;28;20063;-62
2021/10/19 04:22:37;;;;;;;11.98;9.57;;;15.60;90.70;;;;;;4209992;28;20047;-62
2021/10/19 04:25:01;;;;;;;10.20;8.90;;;15.60;90.70;;;;;;4208636;28;20070;-62
2021/10/19 04:27:23;;;;;;;11.10;10.00;;;15.50;90.70;;;;;;4216751;27;20063;-62
2021/10/19 04:29:45;;;;;;;11.35;10.20;;;15.50;90.80;;;;;;4226689;27;20072;-62
2021/10/19 04:32:08;;;;;;;11.20;10.05;;;15.50;90.80;;;;;;4226471;27;20512;-62
2021/10/19 04:34:30;;;;;;;10.55;9.55;;;15.50;90.80;;;;;;4217010;27;20067;-61
2021/10/19 04:36:52;;;;;;;10.57;9.57;;;15.60;90.80;;;;;;4211755;27;20566;-62
2021/10/19 04:39:14;;;;;;;11.80;10.35;;;15.60;90.80;;;;;;4212834;27;20471;-62
2021/10/19 04:41:43;;;;;;;11.32;10.13;;;15.60;90.80;;;;;;4209440;28;20048;-62
2021/10/19 04:44:06;;;;;;;11.30;9.27;;;15.60;90.90;;;;;;4209407;28;20402;-62
2021/10/19 04:46:27;;;;;;;11.90;10.65;;;15.50;90.80;;;;;;4209516;28;20047;-62
2021/10/19 04:48:49;;;;;;;11.73;10.05;;;15.60;90.80;;;;;;4211827;27;20572;-62
2021/10/19 04:51:12;;;;;;;12.60;10.57;;;15.60;90.90;;;;;;4226406;27;20566;-62
2021/10/19 04:53:34;;;;;;;10.45;9.43;;;15.60;90.90;;;;;;4225232;27;20135;-62
2021/10/19 04:55:56;;;;;;;11.07;9.88;;;15.60;90.90;;;;;;4226199;27;20473;-62
2021/10/19 04:58:19;;;;;;;10.55;9.55;;;15.50;90.90;;;;;;4211306;27;20406;-62
2021/10/19 05:00:43;;;;;;;11.50;10.35;;;15.60;90.90;;;;;;4209453;28;20090;-62
2021/10/19 05:03:05;;;;;;;11.85;10.68;;;15.50;90.90;;;;;;4209373;28;20051;-62
2021/10/19 05:05:27;;;;;;;11.82;10.18;;;15.50;91.30;;;;;;4208940;28;20131;-62
2021/10/19 05:07:49;;;;;;;10.27;9.38;;;15.50;90.90;;;;;;4209034;28;20158;-63
2021/10/19 05:10:11;;;;;;;9.70;8.70;;;15.50;91.00;;;;;;4209380;28;20116;-62
2021/10/19 05:12:33;;;;;;;11.30;10.20;;;15.50;90.90;;;;;;4208673;28;20044;-63
2021/10/19 05:14:57;;;;;;;11.25;10.15;;;15.50;90.90;;;;;;4208905;28;20139;-63
2021/10/19 05:17:19;;;;;;;10.77;9.75;;;15.50;90.90;;;;;;4208837;28;20485;-62
2021/10/19 05:19:42;;;;;;;12.95;10.68;;;15.60;90.90;;;;;;4209047;28;20058;-62
2021/10/19 05:22:07;;;;;;;11.10;9.95;;;15.60;91.00;;;;;;4209331;28;20128;-63
2021/10/19 05:24:28;;;;;;;11.43;10.10;;;15.60;91.00;;;;;;4208737;28;20093;-63
2021/10/19 05:26:51;;;;;;;11.77;10.63;;;15.50;91.00;;;;;;4208547;28;20044;-63
2021/10/19 05:29:14;;;;;;;14.57;10.55;;;15.50;91.00;;;;;;4209168;28;20052;-63
2021/10/19 05:31:37;;;;;;;12.60;10.50;;;15.60;91.10;;;;;;4208648;28;20062;-62
2021/10/19 05:34:01;;;;;;;11.85;10.32;;;15.60;91.10;;;;;;4208270;28;20090;-63
2021/10/19 05:36:23;;;;;;;11.40;9.82;;;15.60;91.20;;;;;;4208094;28;20146;-62
2021/10/19 05:38:45;;;;;;;10.80;9.57;;;15.60;91.10;;;;;;4191789;28;20079;-63
2021/10/19 05:41:07;;;;;;;16.73;10.82;;;15.60;91.10;;;;;;4191567;28;20045;-63
2021/10/19 05:43:29;;;;;;;12.70;10.55;;;15.60;91.20;;;;;;4191832;28;20414;-63
2021/10/19 05:45:51;;;;;;;12.65;10.75;;;15.60;91.20;;;;;;4191602;28;20056;-61
2021/10/19 05:48:15;;;;;;;12.38;10.13;;;15.60;91.30;;;;;;4192347;28;20118;-64
2021/10/19 05:50:38;;;;;;;12.75;11.43;;;15.60;91.30;;;;;;4192894;28;20052;-62
2021/10/19 05:53:00;;;;;;;11.95;10.38;;;15.60;91.30;;;;;;4208287;28;20052;-63
2021/10/19 05:55:22;;;;;;;13.30;11.00;;;15.60;91.40;;;;;;4208678;28;20032;-63
2021/10/19 05:57:44;;;;;;;11.95;10.43;;;15.60;91.40;;;;;;4208226;28;20470;-63
2021/10/19 06:00:08;;;;;;;11.85;10.57;;;15.60;91.50;;;;;;4208620;28;20044;-62
2021/10/19 06:02:33;;;;;;;12.60;10.55;;;15.60;91.50;;;;;;4207903;28;20077;-62
2021/10/19 06:04:57;;;;;;;11.98;10.70;;;15.60;91.60;;;;;;4189521;28;20495;-61
2021/10/19 06:07:19;;;;;;;13.13;10.98;;;15.60;92.20;;;;;;4191600;28;20048;-62
2021/10/19 06:09:41;;;;;;;14.55;11.77;;;15.70;91.80;;;;;;4204371;28;20052;-61
2021/10/19 06:12:05;;;;;;;12.55;11.25;;;15.70;91.70;;;;;;4207977;28;20064;-62
2021/10/19 06:14:27;;;;;;;12.15;10.88;;;15.70;91.70;;;;;;4207615;28;20054;-62
2021/10/19 06:16:49;;;;;;;15.57;11.95;;;15.70;91.60;;;;;;4208311;28;20495;-62
2021/10/19 06:19:12;;;;;;;12.63;11.32;;;15.60;91.60;;;;;;4208155;28;20059;-61
2021/10/19 06:21:35;;;;;;;12.00;10.65;;;15.70;91.70;;;;;;4207965;28;20067;-61
2021/10/19 06:23:57;;;;;;;14.25;11.15;;;15.70;91.70;;;;;;4206671;28;20054;-62
2021/10/19 06:26:19;;;;;;;13.70;11.95;;;15.60;91.70;;;;;;4208157;28;20047;-61
2021/10/19 06:28:41;;;;;;;11.55;10.40;;;15.60;91.80;;;;;;4207898;28;20362;-61
2021/10/19 06:31:04;;;;;;;13.43;12.07;;;15.60;91.80;;;;;;4207596;28;20044;-61
2021/10/19 06:33:26;;;;;;;13.80;11.23;;;15.70;91.90;;;;;;4207598;28;20146;-61
2021/10/19 06:35:48;;;;;;;14.18;11.40;;;15.70;92.00;;;;;;4208104;28;20133;-61
2021/10/19 06:38:12;;;;;;;12.27;11.07;;;15.70;92.00;;;;;;4207982;28;20067;-61
2021/10/19 06:40:34;;;;;;;14.55;11.00;;;15.60;91.90;;;;;;4207906;28;20059;-62
2021/10/19 06:42:56;;;;;;;11.88;10.70;;;15.60;91.90;;;;;;4207316;28;20645;-61
2021/10/19 06:45:18;;;;;;;12.70;11.20;;;15.70;92.00;;;;;;4191528;28;20495;-61
2021/10/19 06:47:41;;;;;;;11.75;10.52;;;15.60;92.00;;;;;;4189788;28;20094;-61
2021/10/19 06:50:05;;;;;;;11.77;10.57;;;15.60;92.00;;;;;;4190917;28;20145;-60
2021/10/19 06:52:28;;;;;;;10.93;9.40;;;15.60;91.90;;;;;;4192191;28;20059;-61
2021/10/19 06:54:52;;;;;;;12.20;9.85;;;15.60;91.70;;;;;;4190528;28;20100;-60
2021/10/19 06:57:14;;;;;;;11.02;9.80;;;15.60;91.70;;;;;;4191322;28;20453;-60
2021/10/19 06:59:36;;;;;;;12.07;7.97;;;15.60;92.00;;;;;;4191129;28;20062;-60
2021/10/19 07:01:58;;;;;;;10.88;9.57;;;15.60;91.60;;;;;;4201096;28;20540;-59
2021/10/19 07:04:21;;;;;;;13.00;9.52;;;15.60;91.70;;;;;;4207527;28;20152;-59
2021/10/19 07:06:42;;;;;;;11.38;8.75;;;15.60;91.60;;;;;;4207937;28;20059;-59
2021/10/19 07:09:04;;;;;;;11.93;8.70;;;15.60;91.50;;;;;;4207839;28;20062;-60
2021/10/19 07:11:27;;;;;;;12.40;9.93;;;15.60;91.50;;;;;;4206150;28;20040;-60
2021/10/19 07:13:50;;;;;;;11.45;9.73;;;15.60;91.50;;;;;;4207012;28;20044;-60
2021/10/19 07:16:12;;;;;;;11.07;9.07;;;15.60;91.40;;;;;;4207229;28;20052;-60
2021/10/19 07:18:34;;;;;;;11.30;9.05;;;15.60;91.90;;;;;;4227851;27;20055;-61
2021/10/19 07:20:56;;;;;;;12.75;11.00;;;15.70;91.50;;;;;;4214551;27;20051;-61
2021/10/19 07:23:19;;;;;;;12.40;9.27;;;15.60;91.60;;;;;;4221697;27;20047;-61
2021/10/19 07:25:41;;;;;;;10.35;8.90;;;15.60;91.50;;;;;;4227622;27;20130;-61
2021/10/19 07:28:05;;;;;;;10.82;9.73;;;15.60;91.60;;;;;;4227501;27;20051;-61
2021/10/19 07:30:27;;;;;;;11.73;9.48;;;15.60;91.70;;;;;;4227170;27;20122;-60
2021/10/19 07:32:49;;;;;;;10.45;9.30;;;15.70;91.60;;;;;;4216904;28;20079;-60
2021/10/19 07:35:12;;;;;;;10.82;9.75;;;15.70;91.50;;;;;;4206648;28;20074;-59
2021/10/19 07:37:37;;;;;;;11.93;10.35;;;15.60;91.50;;;;;;4199802;28;20105;-59
2021/10/19 07:39:59;;;;;;;10.52;9.45;;;15.70;91.60;;;;;;4193579;28;20070;-61
2021/10/19 07:42:21;;;;;;;10.35;9.25;;;15.70;91.50;;;;;;4199944;28;20048;-60
2021/10/19 07:44:45;;;;;;;10.98;9.82;;;15.70;91.60;;;;;;4206647;28;20044;-60
2021/10/19 07:47:07;;;;;;;11.25;9.32;;;15.60;91.50;;;;;;4207995;28;20048;-60
2021/10/19 07:49:29;;;;;;;10.35;9.35;;;15.70;91.50;;;;;;4210469;28;20097;-59
2021/10/19 07:51:52;;;;;;;9.43;8.63;;;15.70;91.50;;;;;;4209118;28;20861;-59
2021/10/19 07:54:18;;;;;;;9.57;8.57;;;15.70;91.60;;;;;;4209352;28;20054;-59
2021/10/19 07:56:40;;;;;;;9.20;8.30;;;15.70;91.70;;;;;;4226910;27;20085;-60
2021/10/19 07:59:05;;;;;;;11.38;9.07;;;15.70;91.50;;;;;;4227212;27;20071;-60
2021/10/19 08:01:29;;;;;;;10.35;8.50;;;15.70;91.60;;;;;;4197191;28;20060;-58
2021/10/19 08:03:51;;;;;;;8.82;8.02;;;15.70;91.60;;;;;;4218833;27;20052;-59
2021/10/19 08:06:14;;;;;;;9.70;7.80;;;15.70;92.00;;;;;;4226921;27;20588;-60
2021/10/19 08:08:37;;;;;;;9.65;8.32;;;15.70;91.40;;;;;;4212540;27;20160;-58
2021/10/19 08:10:59;;;;;;;9.55;8.60;;;15.70;91.40;;;;;;4210111;28;20429;-58
2021/10/19 08:13:22;;;;;;;9.90;8.23;;;15.70;91.50;;;;;;4210117;28;20134;-58
2021/10/19 08:15:48;;;;;;;10.10;9.10;;;15.70;91.50;;;;;;4210370;28;20507;-59
2021/10/19 08:18:12;;;;;;;8.35;7.63;;;15.70;91.50;;;;;;4193212;28;20052;-60
2021/10/19 08:20:35;;;;;;;9.18;8.27;;;15.70;91.60;;;;;;4194369;28;20478;-59
2021/10/19 08:22:57;;;;;;;10.02;9.07;;;15.70;91.60;;;;;;4193011;28;20049;-58
2021/10/19 08:25:20;;;;;;;9.98;8.98;;;15.70;91.70;;;;;;4192608;28;20052;-60
2021/10/19 08:27:44;;;;;;;9.00;8.10;;;15.70;91.50;;;;;;4192483;28;20505;-60
2021/10/19 08:30:09;;;;;;;8.65;7.78;;;15.70;91.60;;;;;;4202561;28;20449;-60
2021/10/19 08:32:32;;;;;;;8.10;7.40;;;15.70;91.60;;;;;;4208835;28;20123;-59
2021/10/19 08:34:56;;;;;;;8.80;8.02;;;15.80;91.70;;;;;;4209540;28;20105;-60
2021/10/19 08:37:18;;;;;;;7.13;6.45;;;15.80;91.70;;;;;;4216326;27;20044;-62
2021/10/19 08:39:40;;;;;;;8.18;7.38;;;15.70;91.80;;;;;;4209439;28;20512;-60
2021/10/19 08:42:02;;;;;;;7.15;6.15;;;15.80;91.90;;;;;;4211615;27;20071;-60
2021/10/19 08:44:24;;;;;;;9.40;7.68;;;15.80;91.80;;;;;;4208929;28;20512;-60
2021/10/19 08:46:47;;;;;;;9.18;8.23;;;15.80;91.70;;;;;;4211469;27;20502;-60
2021/10/19 08:49:09;;;;;;;11.02;7.65;;;15.80;92.00;;;;;;4209474;28;20555;-60
2021/10/19 08:51:33;;;;;;;8.95;7.65;;;15.80;91.90;;;;;;4209200;28;20498;-60
2021/10/19 08:53:56;;;;;;;8.13;7.43;;;15.80;92.00;;;;;;4208686;28;20044;-60
2021/10/19 08:56:18;;;;;;;8.65;7.95;;;15.80;92.00;;;;;;4209182;28;20044;-60
2021/10/19 08:58:40;;;;;;;8.65;7.63;;;15.90;92.10;;;;;;4207813;28;20048;-59
2021/10/19 09:01:04;;;;;;;14.68;8.73;;;15.80;92.00;;;;;;4208996;28;20065;-60
2021/10/19 09:03:26;;;;;;;8.68;7.88;;;15.90;92.10;;;;;;4198069;27;20075;-60
2021/10/19 09:05:49;;;;;;;8.90;7.90;;;15.90;92.10;;;;;;4209380;28;20036;-61
2021/10/19 09:08:12;;;;;;;8.25;7.43;;;15.90;92.20;;;;;;4208729;28;20074;-60
2021/10/19 09:10:36;;;;;;;8.23;7.43;;;15.90;92.20;;;;;;4219231;28;20445;-61
2021/10/19 09:13:00;;;;;;;9.57;7.60;;;15.90;92.10;;;;;;4226002;27;20124;-60
2021/10/19 09:15:25;;;;;;;7.10;6.40;;;15.90;92.20;;;;;;4213153;28;20548;-60
2021/10/19 09:17:47;;;;;;;8.77;7.97;;;15.90;92.10;;;;;;4212043;28;20504;-60
2021/10/19 09:20:15;;;;;;;10.60;7.82;;;15.90;92.20;;;;;;4225729;27;20135;-60
2021/10/19 09:22:37;;;;;;;7.40;6.70;;;15.90;92.30;;;;;;4225424;27;20169;-60
2021/10/19 09:25:00;;;;;;;8.50;7.65;;;15.90;92.30;;;;;;4225730;27;20112;-60
2021/10/19 09:27:22;;;;;;;7.07;6.45;;;15.90;92.30;;;;;;4215621;28;20054;-61
2021/10/19 09:29:46;;;;;;;7.28;6.53;;;15.90;92.20;;;;;;4208997;28;20055;-59
2021/10/19 09:32:12;;;;;;;6.32;5.82;;;15.90;92.30;;;;;;4208679;28;20074;-63
2021/10/19 09:34:36;;;;;;;7.43;6.80;;;15.90;92.40;;;;;;4208303;28;20068;-61
2021/10/19 09:37:00;;;;;;;7.90;7.20;;;15.90;92.60;;;;;;4208746;28;20091;-60
2021/10/19 09:39:37;;;;;;;7.95;7.25;;;15.90;92.50;;;;;;4207399;28;20117;-60
2021/10/19 09:42:01;;;;;;;8.25;6.97;;;15.90;92.50;;;;;;4212142;28;20052;-60
2021/10/19 09:44:23;;;;;;;7.72;7.13;;;15.90;92.50;;;;;;4208684;28;20082;-63
2021/10/19 09:46:46;;;;;;;7.43;6.82;;;15.90;92.50;;;;;;4208460;28;20113;-60
2021/10/19 09:49:09;;;;;;;8.20;7.50;;;15.90;92.50;;;;;;4208237;28;20512;-60
2021/10/19 09:51:37;;;;;;;7.90;7.22;;;15.90;92.50;;;;;;4208613;28;20044;-59
2021/10/19 09:53:59;;;;;;;7.50;6.93;;;15.90;92.60;;;;;;4208210;28;20520;-59
2021/10/19 09:56:22;;;;;;;6.50;5.97;;;15.90;92.60;;;;;;4208464;28;20096;-60
2021/10/19 09:58:46;;;;;;;7.78;7.15;;;15.90;92.50;;;;;;4208506;28;20464;-59
2021/10/19 10:01:10;;;;;;;6.60;6.10;;;15.90;92.50;;;;;;4208446;28;20043;-60
2021/10/19 10:03:34;;;;;;;7.63;7.03;;;15.90;92.50;;;;;;4208302;28;20044;-63
2021/10/19 10:05:56;;;;;;;8.18;7.38;;;15.90;92.40;;;;;;4208012;28;20134;-62
2021/10/19 10:08:20;;;;;;;6.95;6.35;;;15.90;92.50;;;;;;4235502;27;20122;-60
2021/10/19 10:10:42;;;;;;;8.20;7.18;;;15.90;92.50;;;;;;4206559;28;20052;-59
2021/10/19 10:13:07;;;;;;;7.32;6.72;;;15.90;92.50;;;;;;4208336;28;20051;-61
2021/10/19 10:15:33;;;;;;;6.30;5.80;;;15.90;92.50;;;;;;4208121;28;20108;-60
2021/10/19 10:18:00;;;;;;;7.18;6.55;;;15.90;92.50;;;;;;4207803;28;20056;-61
2021/10/19 10:20:30;;;;;;;7.07;6.40;;;15.90;92.50;;;;;;4207851;28;20048;-60
2021/10/19 10:22:52;;;;;;;7.55;6.82;;;15.90;92.50;;;;;;4208336;28;20125;-61
2021/10/19 10:25:16;;;;;;;6.13;5.55;;;15.90;92.50;;;;;;4208345;28;20048;-64
2021/10/19 10:27:38;;;;;;;6.38;5.97;;;15.90;92.50;;;;;;4207879;28;20047;-62
2021/10/19 10:30:01;;;;;;;6.55;6.07;;;15.90;92.50;;;;;;4208012;28;20494;-62
2021/10/19 10:32:28;;;;;;;6.47;5.97;;;15.90;92.60;;;;;;4210171;28;20059;-61
2021/10/19 10:35:03;;;;;;;5.88;5.38;;;15.90;92.80;;;;;;4208160;28;20052;-63
2021/10/19 10:37:36;;;;;;;4.80;4.32;;;15.90;92.80;;;;;;4208307;28;20055;-61
2021/10/19 10:39:58;;;;;;;6.72;6.10;;;16.00;93.00;;;;;;4206980;28;20047;-62
2021/10/19 10:42:21;;;;;;;6.28;5.78;;;16.00;93.40;;;;;;4205602;28;20067;-62
2021/10/19 10:44:45;;;;;;;7.18;6.57;;;15.90;93.70;;;;;;4207066;28;20105;-62
2021/10/19 10:47:08;;;;;;;7.65;6.85;;;16.00;94.00;;;;;;4207159;28;20139;-62
2021/10/19 10:49:32;;;;;;;7.30;6.15;;;16.00;94.10;;;;;;4206701;28;20039;-63
2021/10/19 10:51:54;;;;;;;6.18;5.68;;;16.00;94.30;;;;;;4210633;28;20048;-62
2021/10/19 10:54:18;;;;;;;5.60;5.20;;;16.00;94.50;;;;;;4211047;28;20429;-65
2021/10/19 10:56:45;;;;;;;7.00;6.30;;;16.00;94.70;;;;;;4211107;28;20070;-61
2021/10/19 10:59:07;;;;;;;5.65;5.18;;;16.00;94.90;;;;;;4211402;28;21074;-61
2021/10/19 11:01:31;;;;;;;6.90;6.00;;;16.00;95.10;;;;;;4210705;28;20383;-62
2021/10/19 11:04:04;;;;;;;6.82;6.32;;;16.00;95.20;;;;;;4211178;28;20566;-62
2021/10/19 11:06:27;;;;;;;7.03;6.10;;;16.10;95.20;;;;;;4210499;28;20261;-63
2021/10/19 11:08:57;;;;;;;7.78;5.15;;;16.10;95.20;;;;;;4210920;28;20051;-62
2021/10/19 11:11:21;;;;;;;5.07;4.78;;;16.10;95.30;;;;;;4210855;28;20097;-62
2021/10/19 11:13:52;;;;;;;5.68;5.22;;;16.10;95.60;;;;;;4211193;28;20051;-61
2021/10/19 11:16:14;;;;;;;4.47;4.18;;;16.10;95.20;;;;;;4211132;28;20131;-62
2021/10/19 11:18:36;;;;;;;5.25;4.72;;;16.10;95.20;;;;;;4210861;28;20086;-62
2021/10/19 11:20:59;;;;;;;5.10;4.60;;;16.10;95.40;;;;;;4210809;28;20046;-62
2021/10/19 11:23:23;;;;;;;5.20;4.85;;;16.10;95.50;;;;;;4211122;28;20063;-61
2021/10/19 11:25:46;;;;;;;4.15;3.90;;;16.10;95.60;;;;;;4194429;28;20487;-61
2021/10/19 11:28:08;;;;;;;3.72;3.50;;;16.10;95.90;;;;;;4193663;28;20464;-61
2021/10/19 11:30:31;;;;;;;4.07;3.88;;;16.10;95.90;;;;;;4205544;28;20146;-63
2021/10/19 11:32:54;;;;;;;3.85;3.58;;;16.20;96.10;;;;;;4211765;28;20079;-60
2021/10/19 11:35:15;;;;;;;4.05;3.75;;;16.10;96.30;;;;;;4200288;28;20056;-60
2021/10/19 11:37:38;;;;;;;3.55;3.35;;;16.20;96.40;;;;;;4211043;28;20138;-61
2021/10/19 11:40:08;;;;;;;3.78;3.58;;;16.10;96.50;;;;;;4210583;28;20923;-61
2021/10/19 11:42:45;;;;;;;3.75;3.28;;;16.20;96.60;;;;;;4209785;28;20056;-61
2021/10/19 11:45:09;;;;;;;3.28;3.00;;;16.20;96.80;;;;;;4210407;28;20052;-62
2021/10/19 11:47:41;;;;;;;3.83;3.33;;;16.20;96.80;;;;;;4210356;28;20054;-62
2021/10/19 11:50:04;;;;;;;3.00;2.75;;;16.20;97.30;;;;;;4210623;28;20056;-62
2021/10/19 11:52:26;;;;;;;3.22;3.08;;;16.20;97.10;;;;;;4210666;28;20052;-62
2021/10/19 11:54:48;;;;;;;3.22;2.80;;;16.20;97.20;;;;;;4210327;28;20068;-61
2021/10/19 11:57:13;;;;;;;3.72;3.53;;;16.20;97.20;;;;;;4209979;28;20040;-62
2021/10/19 11:59:43;;;;;;;3.75;3.45;;;16.20;97.20;;;;;;4208326;28;20055;-61
2021/10/19 12:02:08;;;;;;;3.13;2.92;;;16.20;97.20;;;;;;4209425;28;20052;-60
2021/10/19 12:04:32;;;;;;;3.05;2.85;;;16.20;97.30;;;;;;4210650;28;20051;-60
2021/10/19 12:06:55;;;;;;;3.63;3.42;;;16.30;97.40;;;;;;4210232;28;20162;-60
2021/10/19 12:09:18;;;;;;;3.45;3.25;;;16.30;97.30;;;;;;4209045;28;20054;-62
2021/10/19 12:11:40;;;;;;;3.97;3.78;;;16.30;97.30;;;;;;4210055;28;20052;-63
2021/10/19 12:14:05;;;;;;;3.80;3.60;;;16.30;97.30;;;;;;4210146;28;20044;-62
2021/10/19 12:16:29;;;;;;;3.30;3.10;;;16.30;97.40;;;;;;4210261;28;20456;-61